Time;durP1;ratioP1;P1;durP2;ratioP2;P2;SDS_P1;SDS_P2;PMS_P1;PMS_P2;Temp;Humidity;BMP_temperature;BMP_pressure;BME280_temperature;BME280_humidity;BME280_pressure;Samples;Min_cycle;Max_cycle;Signal;HPM_P1;HPM_P2
2022/11/10 00:01:08;;;;;;;65.85;36.35;;;;;;;6.29;88.98;100285.08;1798627;79;25588;-58
2022/11/10 00:03:38;;;;;;;62.70;35.43;;;;;;;6.25;89.09;100282.70;1783708;79;26178;-59
2022/11/10 00:06:08;;;;;;;71.95;36.85;;;;;;;6.22;89.12;100277.89;1789518;79;25834;-58
2022/11/10 00:08:36;;;;;;;67.35;35.65;;;;;;;6.23;89.21;100285.40;1810751;78;27581;-58
2022/11/10 00:11:07;;;;;;;65.35;36.00;;;;;;;6.21;89.35;100273.59;1782011;79;25554;-59
2022/11/10 00:16:59;;;;;;;67.20;36.33;;;;;;;6.21;89.34;100272.80;1787306;79;25774;-56
2022/11/10 00:18:54;;;;;;;68.35;36.28;;;;;;;6.16;89.70;100265.57;1787351;79;25602;-58
2022/11/10 00:21:20;;;;;;;64.97;35.05;;;;;;;6.16;89.61;100256.99;1788196;78;27515;-59
2022/11/10 00:23:46;;;;;;;66.07;35.95;;;;;;;6.17;89.66;100268.53;1795912;78;25440;-58
2022/11/10 00:26:17;;;;;;;71.87;36.40;;;;;;;6.14;89.73;100273.11;1721839;82;25432;-59
2022/11/10 00:28:44;;;;;;;67.97;35.63;;;;;;;6.12;89.86;100269.91;1788586;79;25484;-59
2022/11/10 00:31:13;;;;;;;67.92;37.03;;;;;;;6.12;89.81;100280.65;1788934;79;25709;-60
2022/11/10 00:33:43;;;;;;;64.62;35.98;;;;;;;6.09;90.11;100273.14;1786746;79;27507;-58
2022/11/10 00:36:10;;;;;;;68.83;35.78;;;;;;;6.09;90.10;100278.52;1781764;79;27311;-58
2022/11/10 00:38:37;;;;;;;67.22;36.38;;;;;;;6.07;89.95;100288.19;1797605;78;25447;-59
2022/11/10 00:41:04;;;;;;;67.45;35.68;;;;;;;6.09;90.10;100286.02;1733371;77;25876;-58
2022/11/10 00:43:30;;;;;;;68.78;36.70;;;;;;;6.10;90.07;100292.22;1757819;79;25748;-60
2022/11/10 00:45:58;;;;;;;68.07;37.58;;;;;;;6.10;90.14;100290.33;1757712;79;27440;-61
2022/11/10 00:48:24;;;;;;;64.35;36.42;;;;;;;6.11;90.26;100289.25;1716493;82;25893;-58
2022/11/10 00:50:51;;;;;;;69.00;37.63;;;;;;;6.12;90.38;100286.02;1710375;81;25771;-58
2022/11/10 00:53:17;;;;;;;74.50;36.83;;;;;;;6.12;90.39;100281.44;1730934;82;25976;-66
2022/11/10 00:55:44;;;;;;;69.45;36.93;;;;;;;6.13;90.38;100283.58;1741352;82;25766;-59
2022/11/10 00:58:10;;;;;;;64.10;36.55;;;;;;;6.14;90.46;100291.91;1740732;81;27516;-59
2022/11/10 01:00:37;;;;;;;68.15;36.55;;;;;;;6.14;90.51;100287.87;1723228;81;25760;-58
2022/11/10 01:03:04;;;;;;;63.80;36.03;;;;;;;6.14;90.64;100285.98;1699903;83;25829;-57
2022/11/10 01:05:33;;;;;;;63.28;35.28;;;;;;;6.14;90.65;100283.30;1694404;83;26202;-58
2022/11/10 01:07:59;;;;;;;69.75;37.17;;;;;;;6.15;90.71;100287.61;1695322;82;25664;-57
2022/11/10 01:10:26;;;;;;;65.67;35.83;;;;;;;6.16;90.74;100287.05;1711633;81;27530;-59
2022/11/10 01:12:54;;;;;;;71.37;37.03;;;;;;;6.17;90.67;100288.67;1684006;82;27367;-58
2022/11/10 01:15:21;;;;;;;70.47;37.55;;;;;;;6.19;90.63;100291.08;1702611;83;25591;-56
2022/11/10 01:17:49;;;;;;;65.55;34.73;;;;;;;6.20;90.70;100292.14;1705414;84;25624;-58
2022/11/10 01:20:17;;;;;;;64.50;34.40;;;;;;;6.19;90.67;100298.59;1696691;83;25413;-58
2022/11/10 01:22:43;;;;;;;72.65;36.85;;;;;;;6.19;90.76;100291.87;1696117;83;27663;-58
2022/11/10 01:25:10;;;;;;;68.37;36.23;;;;;;;6.19;90.82;100289.19;1710469;83;26449;-58
2022/11/10 01:27:38;;;;;;;70.28;37.28;;;;;;;6.19;90.84;100285.16;1707338;83;25770;-57
2022/11/10 01:30:07;;;;;;;63.48;37.20;;;;;;;6.20;90.85;100294.01;1701002;82;25680;-59
2022/11/10 01:32:35;;;;;;;65.80;36.23;;;;;;;6.19;90.94;100289.19;1691763;83;25474;-57
2022/11/10 01:35:02;;;;;;;72.85;37.30;;;;;;;6.20;91.22;100290.80;1698833;82;27544;-58
2022/11/10 01:37:30;;;;;;;73.92;36.75;;;;;;;6.23;91.03;100290.77;1688064;82;25877;-57
2022/11/10 01:39:57;;;;;;;61.95;34.15;;;;;;;6.24;91.02;100291.05;1762704;81;25557;-58
2022/11/10 01:42:28;;;;;;;70.30;37.53;;;;;;;6.23;91.08;100285.40;1732368;81;25552;-57
2022/11/10 01:45:34;;;;;;;69.55;36.40;;;;;;;6.23;91.09;100287.56;1763153;80;25859;-56
2022/11/10 01:48:05;;;;;;;67.05;35.45;;;;;;;6.23;91.13;100287.56;1734786;82;28211;-58
2022/11/10 01:50:37;;;;;;;73.45;36.83;;;;;;;6.24;91.18;100287.02;1729183;80;25834;-59
2022/11/10 01:53:09;;;;;;;71.65;36.13;;;;;;;6.25;91.29;100289.95;1729902;81;25603;-59
2022/11/10 01:55:42;;;;;;;70.03;36.08;;;;;;;6.25;91.31;100289.42;1742188;81;25684;-58
2022/11/10 01:58:13;;;;;;;67.08;36.05;;;;;;;6.25;91.37;100290.77;1733251;81;25435;-58
2022/11/10 02:00:39;;;;;;;72.42;37.33;;;;;;;6.25;91.42;100292.11;1719359;81;27728;-58
2022/11/10 02:03:36;;;;;;;70.22;36.75;;;;;;;6.26;91.35;100293.70;1736887;81;25803;-57
2022/11/10 02:06:06;;;;;;;69.80;34.85;;;;;;;6.27;91.47;100289.94;1738643;81;25759;-55
2022/11/10 02:08:35;;;;;;;65.90;36.15;;;;;;;6.27;91.54;100293.97;1723625;82;25480;-56
2022/11/10 02:11:04;;;;;;;71.70;36.48;;;;;;;6.27;91.51;100292.62;1738307;80;25629;-58
2022/11/10 02:13:31;;;;;;;70.67;36.93;;;;;;;6.28;91.57;100293.42;1729095;80;27689;-56
2022/11/10 02:15:59;;;;;;;74.32;37.50;;;;;;;6.27;91.57;100293.17;1722521;81;25857;-58
2022/11/10 02:18:26;;;;;;;66.60;36.55;;;;;;;6.27;91.55;100293.97;1732907;80;25440;-58
2022/11/10 02:20:53;;;;;;;68.62;36.55;;;;;;;6.28;91.58;100300.14;1739227;81;25598;-57
2022/11/10 02:23:40;;;;;;;73.45;36.10;;;;;;;6.28;91.67;100302.30;1737872;81;25477;-57
2022/11/10 02:26:08;;;;;;;69.55;36.42;;;;;;;6.29;91.73;100305.23;1732010;82;29809;-58
2022/11/10 02:28:37;;;;;;;69.65;36.80;;;;;;;6.28;91.68;100307.67;1731736;81;25775;-58
2022/11/10 02:31:08;;;;;;;73.45;39.03;;;;;;;6.29;91.79;100307.92;1740548;81;25439;-58
2022/11/10 02:33:36;;;;;;;66.02;36.10;;;;;;;6.30;91.79;100306.02;1729561;80;25614;-57
2022/11/10 02:36:05;;;;;;;70.60;36.03;;;;;;;6.31;91.90;100304.95;1722570;81;25622;-58
2022/11/10 02:38:31;;;;;;;67.92;35.98;;;;;;;6.32;91.89;100306.02;1738093;81;27672;-55
2022/11/10 02:40:57;;;;;;;65.60;34.67;;;;;;;6.34;91.92;100303.84;1745992;81;25630;-54
2022/11/10 02:43:24;;;;;;;64.45;36.50;;;;;;;6.35;91.97;100297.41;1728168;81;25773;-58
2022/11/10 02:45:50;;;;;;;67.40;36.20;;;;;;;6.37;91.95;100307.87;1739487;82;25547;-56
2022/11/10 02:48:17;;;;;;;65.15;36.65;;;;;;;6.38;92.03;100309.46;1737201;81;25505;-56
2022/11/10 02:50:43;;;;;;;75.47;38.30;;;;;;;6.39;92.12;100304.91;1725990;81;27535;-55
2022/11/10 02:53:11;;;;;;;67.30;36.03;;;;;;;6.41;92.19;100310.25;1744553;82;25662;-58
2022/11/10 02:55:37;;;;;;;65.50;35.83;;;;;;;6.42;92.19;100310.52;1728712;81;25826;-59
2022/11/10 02:58:05;;;;;;;75.22;37.70;;;;;;;6.45;92.21;100314.52;1729467;81;25601;-58
2022/11/10 03:00:32;;;;;;;70.70;36.08;;;;;;;6.46;92.19;100320.17;1739713;82;25578;-58
2022/11/10 03:03:01;;;;;;;65.32;36.15;;;;;;;6.49;92.15;100324.98;1729250;81;27465;-59
2022/11/10 03:05:32;;;;;;;67.03;36.10;;;;;;;6.51;92.16;100328.19;1723597;81;25490;-59
2022/11/10 03:08:01;;;;;;;70.28;36.50;;;;;;;6.52;92.09;100327.09;1726134;81;25811;-58
2022/11/10 03:10:30;;;;;;;68.80;35.73;;;;;;;6.53;92.12;100328.70;1708781;81;25843;-59
2022/11/10 03:13:00;;;;;;;70.55;37.60;;;;;;;6.53;92.13;100326.02;1723953;81;25475;-57
2022/11/10 03:15:29;;;;;;;66.82;35.05;;;;;;;6.53;92.14;100323.33;1732166;82;27429;-58
2022/11/10 03:17:59;;;;;;;67.37;37.13;;;;;;;6.52;92.02;100318.51;1716351;80;25376;-58
2022/11/10 03:20:24;;;;;;;;;;;;;;;6.55;92.04;100327.88;1709774;82;25769;-56
2022/11/10 03:22:50;;;;;;;66.62;35.13;;;;;;;6.56;91.99;100333.52;1743067;81;34861;-57
2022/11/10 03:25:18;;;;;;;70.37;35.55;;;;;;;6.55;92.08;100334.59;1729934;81;25582;-57
2022/11/10 03:27:45;;;;;;;65.10;34.88;;;;;;;6.55;92.06;100322.50;1720205;82;27565;-58
2022/11/10 03:30:13;;;;;;;66.10;34.78;;;;;;;6.57;92.06;100321.67;1717863;82;33327;-56
2022/11/10 03:32:40;;;;;;;61.42;32.50;;;;;;;6.58;92.05;100318.47;1723903;81;25430;-58
2022/11/10 03:35:08;;;;;;;64.25;33.40;;;;;;;6.62;92.05;100320.84;1742459;81;26088;-58
2022/11/10 03:37:34;;;;;;;62.83;35.08;;;;;;;6.62;91.92;100323.53;1718544;81;25648;-57
2022/11/10 03:40:00;;;;;;;70.60;34.35;;;;;;;6.62;91.86;100321.63;1732801;81;27514;-58
2022/11/10 03:42:26;;;;;;;68.67;35.48;;;;;;;6.62;91.84;100318.94;1740948;80;32783;-55
2022/11/10 03:44:52;;;;;;;67.27;34.88;;;;;;;6.64;91.80;100321.35;1737723;80;25352;-58
2022/11/10 03:47:19;;;;;;;62.58;33.13;;;;;;;6.65;91.73;100328.34;1735274;81;34967;-58
2022/11/10 03:49:45;;;;;;;68.78;33.33;;;;;;;6.63;91.83;100331.31;1716206;81;25786;-57
2022/11/10 03:52:12;;;;;;;70.97;38.42;;;;;;;6.63;91.86;100327.83;1739372;82;27569;-57
2022/11/10 03:54:38;;;;;;;66.67;35.40;;;;;;;6.65;91.90;100337.75;1737911;82;25641;-58
2022/11/10 03:57:04;;;;;;;69.92;33.90;;;;;;;6.64;91.86;100336.96;1733029;80;25756;-57
2022/11/10 03:59:31;;;;;;;67.55;32.85;;;;;;;6.64;91.92;100335.61;1730546;82;34733;-59
2022/11/10 04:01:57;;;;;;;64.42;30.85;;;;;;;6.65;91.84;100340.44;1724246;80;25428;-58
2022/11/10 04:09:43;;;;;;;71.07;34.38;;;;;;;6.67;91.87;100335.58;1649505;85;25641;-58
2022/11/10 04:17:39;;;;;;;64.95;32.30;;;;;;;6.68;91.80;100358.15;1640763;84;27508;-57
2022/11/10 04:20:08;;;;;;;68.02;33.05;;;;;;;6.65;91.80;100353.33;1611774;88;25525;-58
2022/11/10 04:25:19;;;;;;;65.30;33.73;;;;;;;6.67;91.93;100344.98;1586572;88;25938;-59
2022/11/10 04:27:45;;;;;;;66.05;33.28;;;;;;;6.68;92.01;100345.26;1577568;88;32938;-58
2022/11/10 04:30:11;;;;;;;70.57;35.92;;;;;;;6.70;92.04;100348.46;1577435;89;27484;-60
2022/11/10 04:32:37;;;;;;;72.67;35.03;;;;;;;6.70;91.99;100346.56;1583991;88;27389;-58
2022/11/10 04:35:06;;;;;;;71.22;33.60;;;;;;;6.70;91.95;100361.35;1587072;89;25753;-59
2022/11/10 04:37:32;;;;;;;66.55;33.15;;;;;;;6.71;92.07;100370.24;1603979;87;26113;-58
2022/11/10 04:39:58;;;;;;;61.37;33.02;;;;;;;6.70;92.12;100365.94;1643240;85;25891;-59
2022/11/10 04:42:24;;;;;;;66.85;33.13;;;;;;;6.71;92.19;100362.97;1655978;85;27545;-57
2022/11/10 04:44:50;;;;;;;62.40;31.80;;;;;;;6.70;92.17;100365.94;1655172;85;25707;-57
2022/11/10 04:47:16;;;;;;;69.77;34.25;;;;;;;6.72;92.22;100367.80;1684235;83;25677;-59
2022/11/10 04:49:42;;;;;;;65.72;33.75;;;;;;;6.71;92.36;100367.00;1700852;84;25553;-55
2022/11/10 04:52:09;;;;;;;73.85;35.83;;;;;;;6.75;92.42;100369.13;1702784;84;25545;-57
2022/11/10 04:54:35;;;;;;;66.72;35.38;;;;;;;6.76;92.44;100370.72;1704599;83;28168;-59
2022/11/10 04:57:01;;;;;;;70.47;35.33;;;;;;;6.77;92.63;100369.09;1709469;83;25404;-58
2022/11/10 04:59:28;;;;;;;69.07;35.28;;;;;;;6.78;92.61;100375.30;1697190;83;25426;-57
2022/11/10 05:01:54;;;;;;;67.75;34.43;;;;;;;6.77;92.58;100374.47;1678109;84;25588;-58
2022/11/10 05:04:20;;;;;;;67.53;33.67;;;;;;;6.78;92.60;100374.75;1663395;84;25161;-59
2022/11/10 05:06:46;;;;;;;67.42;33.92;;;;;;;6.79;92.78;100378.23;1666940;84;29776;-58
2022/11/10 05:09:12;;;;;;;68.22;35.50;;;;;;;6.81;92.90;100378.22;1659651;84;32791;-56
2022/11/10 05:11:38;;;;;;;70.47;37.08;;;;;;;6.85;92.98;100386.52;1666536;85;29667;-57
2022/11/10 05:14:05;;;;;;;72.42;38.92;;;;;;;6.90;93.05;100389.97;1670921;84;27715;-58
2022/11/10 05:16:31;;;;;;;73.83;37.28;;;;;;;6.92;93.09;100391.03;1663715;84;25603;-57
2022/11/10 05:18:57;;;;;;;68.95;36.15;;;;;;;6.93;93.06;100387.27;1672331;85;27523;-55
2022/11/10 05:21:23;;;;;;;72.05;39.35;;;;;;;6.94;93.13;100387.52;1664652;84;25545;-58
2022/11/10 05:23:49;;;;;;;68.40;35.63;;;;;;;6.95;93.16;100387.78;1689229;83;25394;-58
2022/11/10 05:26:18;;;;;;;66.05;35.50;;;;;;;6.95;93.21;100392.34;1676991;84;25692;-57
2022/11/10 05:28:45;;;;;;;69.63;37.90;;;;;;;6.97;93.22;100392.33;1669007;83;25621;-58
2022/11/10 05:31:13;;;;;;;74.53;38.80;;;;;;;6.99;93.25;100394.74;1661876;84;27494;-57
2022/11/10 05:33:40;;;;;;;75.97;38.63;;;;;;;6.99;93.25;100398.23;1696436;84;25645;-56
2022/11/10 05:36:07;;;;;;;68.65;36.13;;;;;;;7.00;93.28;100402.53;1691236;83;25540;-57
2022/11/10 05:38:35;;;;;;;72.62;36.83;;;;;;;7.01;93.41;100404.12;1705492;83;26047;-56
2022/11/10 05:41:01;;;;;;;66.33;36.88;;;;;;;7.04;93.54;100411.62;1719880;82;25611;-58
2022/11/10 05:43:27;;;;;;;71.15;36.93;;;;;;;7.06;93.60;100417.52;1734260;81;27480;-55
2022/11/10 05:45:53;;;;;;;70.00;37.80;;;;;;;7.07;93.57;100423.17;1735578;81;25416;-57
2022/11/10 05:48:19;;;;;;;77.55;39.75;;;;;;;7.10;93.66;100429.89;1735871;81;25450;-59
2022/11/10 05:50:46;;;;;;;70.25;38.60;;;;;;;7.10;93.76;100436.06;1739374;80;25600;-59
2022/11/10 05:53:12;;;;;;;70.97;35.25;;;;;;;7.11;93.74;100437.66;1726198;80;25561;-58
2022/11/10 05:55:38;;;;;;;69.87;35.05;;;;;;;7.13;93.77;100445.45;1724933;82;27494;-59
2022/11/10 05:58:06;;;;;;;69.22;33.83;;;;;;;7.14;93.90;100446.27;1725528;82;27383;-59
2022/11/10 06:00:34;;;;;;;64.37;32.03;;;;;;;7.15;93.95;100451.38;1739472;81;25215;-59
2022/11/10 06:03:14;;;;;;;63.10;31.02;;;;;;;7.18;94.13;100460.20;1739182;81;25579;-59
2022/11/10 06:05:41;;;;;;;62.38;31.95;;;;;;;7.18;94.12;100457.51;1742372;82;25614;-57
2022/11/10 06:08:10;;;;;;;71.00;34.08;;;;;;;7.21;94.25;100465.57;1746603;80;27514;-59
2022/11/10 06:10:38;;;;;;;67.22;33.85;;;;;;;7.23;94.35;100471.47;1743376;81;25533;-58
2022/11/10 06:13:06;;;;;;;72.20;36.10;;;;;;;7.24;94.42;100474.43;1746501;82;25757;-59
2022/11/10 06:15:34;;;;;;;68.20;34.60;;;;;;;7.27;94.56;100486.77;1727613;82;25644;-58
2022/11/10 06:18:02;;;;;;;69.07;34.53;;;;;;;7.27;94.72;100484.60;1719685;81;25451;-58
2022/11/10 06:20:29;;;;;;;71.20;34.73;;;;;;;7.31;94.92;100486.22;1717760;82;28142;-54
2022/11/10 06:23:11;;;;;;;76.72;37.58;;;;;;;7.31;95.15;100488.36;1711489;81;25789;-57
2022/11/10 06:25:40;;;;;;;73.95;36.25;;;;;;;7.35;95.28;100491.28;1712152;81;25642;-58
2022/11/10 06:28:09;;;;;;;74.07;35.75;;;;;;;7.37;95.45;100495.31;1704818;84;30978;-59
2022/11/10 06:30:38;;;;;;;67.37;33.48;;;;;;;7.39;95.53;100492.31;1675348;83;25425;-56
2022/11/10 06:33:04;;;;;;;75.42;37.75;;;;;;;7.41;95.64;100500.38;1704182;83;28273;-57
2022/11/10 06:35:32;;;;;;;74.65;37.10;;;;;;;7.44;95.77;100505.72;1702593;83;25400;-57
2022/11/10 06:38:11;;;;;;;73.42;36.38;;;;;;;7.45;95.83;100508.14;1702679;83;25437;-58
2022/11/10 06:40:38;;;;;;;72.40;36.77;;;;;;;7.48;95.89;100514.86;1709822;83;26296;-59
2022/11/10 06:43:05;;;;;;;72.17;36.88;;;;;;;7.51;95.95;100514.82;1704003;83;25767;-58
2022/11/10 06:45:31;;;;;;;80.67;38.08;;;;;;;7.52;96.02;100517.23;1702363;83;27463;-56
2022/11/10 06:48:09;;;;;;;74.30;37.20;;;;;;;7.54;96.09;100519.09;1702516;83;25541;-56
2022/11/10 06:50:35;;;;;;;74.45;37.15;;;;;;;7.57;96.25;100522.56;1704310;83;25770;-56
2022/11/10 06:53:02;;;;;;;72.85;35.65;;;;;;;7.59;96.26;100524.98;1703810;83;25606;-53
2022/11/10 06:55:30;;;;;;;71.92;36.55;;;;;;;7.60;96.36;100530.09;1707806;83;25636;-57
2022/11/10 06:57:56;;;;;;;76.28;36.63;;;;;;;7.62;96.48;100529.25;1703474;83;27451;-57
2022/11/10 07:00:25;;;;;;;73.22;36.48;;;;;;;7.64;96.56;100529.80;1707049;83;27385;-57
2022/11/10 07:03:02;;;;;;;82.23;38.07;;;;;;;7.66;96.69;100534.88;1705091;83;25490;-56
2022/11/10 07:05:30;;;;;;;75.90;37.25;;;;;;;7.67;96.81;100540.53;1702561;83;25581;-55
2022/11/10 07:08:12;;;;;;;72.40;37.80;;;;;;;7.70;97.01;100544.01;1707543;83;25201;-58
2022/11/10 07:10:39;;;;;;;82.47;36.95;;;;;;;7.73;97.10;100550.70;1704618;83;27718;-57
2022/11/10 07:13:05;;;;;;;74.55;36.93;;;;;;;7.76;97.32;100555.53;1704766;83;25908;-57
2022/11/10 07:15:32;;;;;;;74.37;37.03;;;;;;;7.79;97.47;100560.34;1700670;84;25464;-55
2022/11/10 07:18:04;;;;;;;72.80;38.23;;;;;;;7.80;97.54;100560.62;1704556;83;25580;-56
2022/11/10 07:20:31;;;;;;;82.00;36.95;;;;;;;7.81;97.82;100567.05;1705996;83;25555;-57
2022/11/10 07:23:01;;;;;;;77.72;35.70;;;;;;;7.83;98.09;100566.24;1705419;83;29743;-58
2022/11/10 07:25:32;;;;;;;79.05;36.70;;;;;;;7.90;98.31;100571.82;1705979;83;25399;-58
2022/11/10 07:28:02;;;;;;;84.37;39.20;;;;;;;7.93;98.63;100573.40;1703152;83;25447;-59
2022/11/10 07:30:32;;;;;;;80.77;36.15;;;;;;;8.00;98.89;100579.80;1694694;83;26089;-58
2022/11/10 07:33:07;;;;;;;78.60;36.95;;;;;;;8.07;99.19;100574.91;1700410;83;25380;-59
2022/11/10 07:35:34;;;;;;;86.92;39.33;;;;;;;8.12;99.27;100583.46;1704498;83;28165;-59
2022/11/10 07:38:09;;;;;;;80.75;36.55;;;;;;;8.17;99.25;100578.84;1707079;83;27400;-54
2022/11/10 07:40:38;;;;;;;78.78;37.23;;;;;;;8.23;99.31;100582.27;1710162;83;25532;-57
2022/11/10 07:43:05;;;;;;;77.78;37.88;;;;;;;8.27;99.17;100575.77;1713184;83;25761;-55
2022/11/10 07:45:33;;;;;;;74.95;36.83;;;;;;;8.31;99.31;100577.61;1703933;83;25557;-58
2022/11/10 07:48:03;;;;;;;82.72;37.58;;;;;;;8.37;99.38;100574.30;1705346;83;27557;-58
2022/11/10 07:50:30;;;;;;;81.45;37.38;;;;;;;8.40;99.40;100575.87;1667595;85;25510;-58
2022/11/10 07:53:18;;;;;;;82.60;39.13;;;;;;;8.44;99.37;100584.22;1678313;85;25706;-52
2022/11/10 07:55:45;;;;;;;83.60;38.47;;;;;;;8.49;99.42;100588.20;1669963;82;26016;-51
2022/11/10 07:58:15;;;;;;;87.82;37.65;;;;;;;8.53;99.40;100592.48;1704132;83;25541;-53
2022/11/10 08:00:43;;;;;;;85.07;39.60;;;;;;;8.56;99.50;100596.77;1699040;83;27559;-56
2022/11/10 08:03:17;;;;;;;84.52;37.17;;;;;;;8.59;99.54;100594.83;1704776;83;25483;-55
2022/11/10 08:05:44;;;;;;;83.58;38.67;;;;;;;8.64;99.70;100603.97;1731460;81;25468;-57
2022/11/10 08:08:12;;;;;;;90.07;38.70;;;;;;;8.69;99.86;100602.55;1717470;82;25518;-57
2022/11/10 08:10:39;;;;;;;84.05;38.65;;;;;;;8.72;99.98;100601.42;1739040;80;25631;-56
2022/11/10 08:13:09;;;;;;;81.55;37.83;;;;;;;8.74;99.86;100611.38;1709043;81;27496;-57
2022/11/10 08:15:37;;;;;;;84.70;38.02;;;;;;;8.77;99.91;100605.97;1702739;83;25733;-57
2022/11/10 08:18:20;;;;;;;85.80;36.83;;;;;;;8.80;100.00;100617.50;1722080;80;25543;-55
2022/11/10 08:20:48;;;;;;;81.10;37.08;;;;;;;8.84;99.93;100615.84;1729722;82;25454;-56
2022/11/10 08:23:15;;;;;;;81.53;36.38;;;;;;;8.86;100.00;100619.61;1723364;81;25402;-54
2022/11/10 08:25:42;;;;;;;82.05;36.38;;;;;;;8.88;100.00;100631.70;1738885;82;27535;-56
2022/11/10 08:28:15;;;;;;;78.22;35.60;;;;;;;8.90;100.00;100632.77;1729629;81;25802;-56
2022/11/10 08:30:46;;;;;;;83.37;36.35;;;;;;;8.94;100.00;100639.20;1712184;80;25868;-57
2022/11/10 08:33:16;;;;;;;72.45;35.05;;;;;;;8.97;100.00;100639.42;1710121;81;25478;-58
2022/11/10 08:35:46;;;;;;;80.28;35.43;;;;;;;9.02;100.00;100645.84;1702137;82;25912;-54
2022/11/10 08:38:23;;;;;;;80.70;37.17;;;;;;;9.06;100.00;100649.55;1646196;84;28183;-54
2022/11/10 08:40:50;;;;;;;83.15;35.15;;;;;;;9.09;100.00;100646.28;1684223;83;26072;-58
2022/11/10 08:43:17;;;;;;;77.92;36.83;;;;;;;9.13;100.00;100655.41;1735291;81;25588;-58
2022/11/10 08:45:45;;;;;;;75.35;35.63;;;;;;;9.18;100.00;100650.47;1738835;81;27687;-56
2022/11/10 08:48:15;;;;;;;76.42;34.48;;;;;;;9.18;100.00;100644.55;1731214;80;25461;-57
2022/11/10 08:50:42;;;;;;;80.00;35.63;;;;;;;9.22;100.00;100649.61;1687976;82;28197;-56
2022/11/10 08:53:13;;;;;;;80.75;36.48;;;;;;;9.27;100.00;100654.14;1718301;80;25868;-56
2022/11/10 08:55:42;;;;;;;73.40;33.78;;;;;;;9.29;100.00;100660.05;1691703;83;25853;-57
2022/11/10 08:58:16;;;;;;;81.50;34.60;;;;;;;9.33;100.00;100672.69;1680098;82;25684;-58
2022/11/10 09:00:43;;;;;;;74.12;34.58;;;;;;;9.39;100.00;100674.76;1736715;80;25492;-58
2022/11/10 09:03:20;;;;;;;80.80;36.90;;;;;;;9.42;100.00;100682.28;1729893;81;28053;-55
2022/11/10 09:05:49;;;;;;;80.53;35.92;;;;;;;9.44;100.00;100680.09;1734490;80;25634;-57
2022/11/10 09:08:16;;;;;;;72.15;34.63;;;;;;;9.46;100.00;100687.90;1724056;81;25446;-57
2022/11/10 09:10:46;;;;;;;77.20;35.65;;;;;;;9.50;100.00;100687.03;1733729;81;25786;-58
2022/11/10 09:13:15;;;;;;;72.72;33.38;;;;;;;9.55;100.00;100690.19;1733155;81;25962;-58
2022/11/10 09:15:42;;;;;;;75.57;35.77;;;;;;;9.58;100.00;100696.36;1732070;82;27544;-57
2022/11/10 09:18:13;;;;;;;71.02;34.18;;;;;;;9.63;100.00;100704.39;1735202;81;25898;-57
2022/11/10 09:20:40;;;;;;;66.95;33.42;;;;;;;9.64;100.00;100706.00;1729514;81;25619;-58
2022/11/10 09:23:11;;;;;;;69.42;33.35;;;;;;;9.70;100.00;100706.20;1730426;81;26407;-54
2022/11/10 09:25:39;;;;;;;70.20;34.23;;;;;;;9.72;100.00;100705.88;1715915;81;25471;-58
2022/11/10 09:28:13;;;;;;;70.22;33.00;;;;;;;9.79;100.00;100711.73;1743385;81;27633;-57
2022/11/10 09:30:41;;;;;;;64.72;29.90;;;;;;;9.83;100.00;100714.09;1726852;82;25823;-59
2022/11/10 09:33:08;;;;;;;64.62;29.67;;;;;;;9.86;100.00;100707.31;1737603;80;25397;-59
2022/11/10 09:35:34;;;;;;;62.38;28.95;;;;;;;9.90;100.00;100715.88;1722729;81;26314;-52
2022/11/10 09:38:00;;;;;;;67.22;29.12;;;;;;;9.94;100.00;100717.98;1730370;81;25489;-54
2022/11/10 09:40:49;;;;;;;68.92;29.82;;;;;;;9.98;100.00;100715.77;1727167;81;28105;-57
2022/11/10 09:43:36;;;;;;;53.57;27.83;;;;;;;10.01;100.00;100717.88;1726181;81;25365;-54
2022/11/10 09:46:29;;;;;;;57.25;27.65;;;;;;;10.04;100.00;100728.08;1725501;80;25509;-56
2022/11/10 09:49:04;;;;;;;62.88;30.32;;;;;;;10.05;100.00;100719.45;1723960;80;25546;-56
2022/11/10 09:51:35;;;;;;;64.40;30.82;;;;;;;10.09;100.00;100717.75;1709460;81;25606;-52
2022/11/10 09:54:23;;;;;;;62.25;29.80;;;;;;;10.10;100.00;100718.81;1720571;80;27511;-53
2022/11/10 09:56:54;;;;;;;66.02;33.00;;;;;;;10.14;100.00;100726.33;1721044;81;25410;-51
2022/11/10 09:59:32;;;;;;;60.40;29.10;;;;;;;10.14;100.00;100727.12;1725713;80;25473;-53
2022/11/10 10:02:30;;;;;;;63.45;29.80;;;;;;;10.15;100.00;100734.67;1687572;83;25489;-54
2022/11/10 10:05:20;;;;;;;61.48;29.80;;;;;;;10.16;100.00;100734.38;1654777;84;25661;-55
2022/11/10 10:08:03;;;;;;;58.17;29.00;;;;;;;10.20;100.00;100730.02;1670259;84;27565;-55
2022/11/10 10:10:43;;;;;;;65.28;30.85;;;;;;;10.25;100.00;100737.24;1718497;81;25561;-52
2022/11/10 10:13:49;;;;;;;60.15;28.32;;;;;;;10.27;100.00;100737.19;1729270;80;25559;-55
2022/11/10 10:16:26;;;;;;;56.02;28.57;;;;;;;10.25;100.00;100735.89;1714991;80;25594;-57
2022/11/10 10:19:27;;;;;;;66.33;31.80;;;;;;;10.27;100.00;100741.80;1738791;82;25408;-54
2022/11/10 10:22:04;;;;;;;63.17;30.85;;;;;;;10.29;100.00;100743.66;1708298;84;28133;-52
2022/11/10 10:24:32;;;;;;;60.70;32.05;;;;;;;10.31;100.00;100752.83;1740903;80;25405;-56
2022/11/10 10:27:05;;;;;;;62.27;30.00;;;;;;;10.33;100.00;100748.74;1723178;80;25622;-56
2022/11/10 10:29:50;;;;;;;57.75;31.20;;;;;;;10.37;100.00;100749.77;1746470;81;25648;-55
2022/11/10 10:32:20;;;;;;;62.35;35.68;;;;;;;10.40;100.00;100755.13;1721359;80;25776;-56
2022/11/10 10:34:46;;;;;;;61.53;33.55;;;;;;;10.43;100.00;100754.53;1726064;81;27496;-56
2022/11/10 10:37:27;;;;;;;55.00;29.42;;;;;;;10.42;100.00;100755.63;1732771;81;25702;-54
2022/11/10 10:39:55;;;;;;;55.23;28.60;;;;;;;10.39;100.00;100748.13;1724061;80;25623;-54
2022/11/10 10:42:32;;;;;;;58.52;29.00;;;;;;;10.44;100.00;100745.34;1707608;80;25514;-55
2022/11/10 10:45:19;;;;;;;53.63;27.73;;;;;;;10.45;100.00;100741.52;1730989;82;25753;-56
2022/11/10 10:47:50;;;;;;;60.95;30.05;;;;;;;10.50;100.00;100737.92;1721325;81;27499;-56
2022/11/10 10:50:36;;;;;;;55.05;28.00;;;;;;;10.58;100.00;100749.42;1735485;81;25935;-56
2022/11/10 10:53:19;;;;;;;55.98;29.05;;;;;;;10.63;100.00;100737.16;1696620;83;25477;-56
2022/11/10 10:56:02;;;;;;;56.77;29.12;;;;;;;10.75;100.00;100742.09;1715207;81;25592;-55
2022/11/10 10:58:54;;;;;;;54.10;26.37;;;;;;;10.82;100.00;100746.55;1728919;81;25482;-53
2022/11/10 11:01:31;;;;;;;52.15;26.05;;;;;;;10.89;100.00;100742.09;1733905;80;27529;-55
2022/11/10 11:04:00;;;;;;;51.08;28.02;;;;;;;10.88;100.00;100739.95;1718763;81;25413;-57
2022/11/10 11:06:30;;;;;;;55.50;28.50;;;;;;;10.88;100.00;100742.66;1690455;82;25632;-55
2022/11/10 11:09:24;;;;;;;53.00;27.00;;;;;;;10.89;100.00;100744.23;1673000;85;26104;-57
2022/11/10 11:12:05;;;;;;;57.83;31.00;;;;;;;10.91;100.00;100748.80;1734845;81;25464;-56
2022/11/10 11:14:32;;;;;;;55.28;27.55;;;;;;;10.90;100.00;100754.53;1719835;81;28261;-57
2022/11/10 11:17:12;;;;;;;49.05;26.12;;;;;;;10.94;100.00;100754.17;1706364;83;25542;-56
2022/11/10 11:19:39;;;;;;;47.27;26.37;;;;;;;10.93;100.00;100756.62;1707122;83;25395;-60
2022/11/10 11:22:36;;;;;;;48.45;27.77;;;;;;;10.92;100.00;100753.12;1691778;83;25570;-51
2022/11/10 11:25:34;;;;;;;48.23;26.05;;;;;;;10.96;100.00;100761.44;1732399;81;25734;-51
2022/11/10 11:28:30;;;;;;;42.08;26.55;;;;;;;10.96;100.00;100759.52;1734661;81;27502;-51
2022/11/10 11:31:13;;;;;;;42.10;26.57;;;;;;;10.94;100.00;100762.30;1725731;81;25795;-50
2022/11/10 11:34:06;;;;;;;45.00;24.85;;;;;;;10.93;100.00;100761.50;1728609;80;25627;-51
2022/11/10 11:37:07;;;;;;;55.43;25.37;;;;;;;10.93;100.00;100757.44;1712687;82;26136;-51
2022/11/10 11:39:57;;;;;;;41.23;24.50;;;;;;;10.93;100.00;100763.38;1713107;82;25617;-52
2022/11/10 11:42:46;;;;;;;39.40;23.35;;;;;;;10.93;100.00;100762.03;1680196;83;28091;-52
2022/11/10 11:45:21;;;;;;;49.40;25.40;;;;;;;10.93;99.95;100762.03;1703262;83;26059;-50
2022/11/10 11:47:58;;;;;;;41.20;24.40;;;;;;;10.98;100.00;100776.82;1691822;82;25427;-50